aviador You're here:

EPLB Decoded Metar

in
Report Time2018-04-24 02:30:00
UTC Time2018-04-24 02:47:51
Flight Rules mvfr MVFR
Wind280° at 07 kt
W.Rank280° ranks 2
Current wind is below 280° avg. (8.5)
Visibility7000 m
Phenomena:N/A
Clouds:N/A
CeilingNone
Temp12°C
Dew Point12°C (100% RH)
AAT10.1°C
QNH1011 hPa
Raw Report
EPLB 240230Z 28007KT 7000 NSC 12/12 Q1011=

Extra information for EPLB:More info

Social comments